createdAt,value
2022-09-09T00:01:28.686Z,3.90
2022-09-09T00:03:38.945Z,2.35
2022-09-09T00:05:49.707Z,2.47
2022-09-09T00:07:56.823Z,4.65
2022-09-09T00:10:01.076Z,2.83
2022-09-09T00:12:11.950Z,2.65
2022-09-09T00:14:33.816Z,3.47
2022-09-09T00:16:38.597Z,2.95
2022-09-09T00:18:58.578Z,3.15
2022-09-09T00:21:07.277Z,2.55
2022-09-09T00:23:27.967Z,2.90
2022-09-09T00:25:34.328Z,3.05
2022-09-09T00:27:41.345Z,3.38
2022-09-09T00:29:45.105Z,3.28
2022-09-09T00:31:47.938Z,2.90
2022-09-09T00:33:50.561Z,3.22
2022-09-09T00:35:54.221Z,2.88
2022-09-09T00:37:58.969Z,2.63
2022-09-09T00:40:04.198Z,3.90
2022-09-09T00:42:20.442Z,2.30
2022-09-09T00:44:22.169Z,2.65
2022-09-09T00:46:46.420Z,4.13
2022-09-09T00:49:08.635Z,2.50
2022-09-09T00:51:16.256Z,2.60
2022-09-09T00:53:18.890Z,3.00
2022-09-09T00:55:23.377Z,2.20
2022-09-09T00:57:32.297Z,3.13
2022-09-09T00:59:37.328Z,2.50
2022-09-09T01:01:40.579Z,3.10
2022-09-09T01:03:46.981Z,3.03
2022-09-09T01:06:01.423Z,2.90
2022-09-09T01:10:10.934Z,3.08
2022-09-09T01:12:18.370Z,3.55
2022-09-09T01:14:26.821Z,3.78
2022-09-09T01:16:30.130Z,3.15
2022-09-09T01:18:40.887Z,2.78
2022-09-09T01:21:01.456Z,2.90
2022-09-09T01:23:05.957Z,2.67
2022-09-09T01:25:26.855Z,3.13
2022-09-09T01:27:28.382Z,3.53
2022-09-09T01:29:30.008Z,2.75
2022-09-09T01:31:38.770Z,3.03
2022-09-09T01:33:40.389Z,3.42
2022-09-09T01:35:49.346Z,2.85
2022-09-09T01:37:51.035Z,3.72
2022-09-09T01:39:52.594Z,3.40
2022-09-09T01:41:54.718Z,3.00
2022-09-09T01:43:56.484Z,3.28
2022-09-09T01:46:00.366Z,3.90
2022-09-09T01:48:03.873Z,3.67
2022-09-09T01:50:05.725Z,4.72
2022-09-09T01:52:07.786Z,3.60
2022-09-09T01:54:09.534Z,3.58
2022-09-09T01:56:17.030Z,4.28
2022-09-09T01:58:26.683Z,4.03
2022-09-09T02:00:29.598Z,3.30
2022-09-09T02:02:34.220Z,4.78
2022-09-09T02:04:46.886Z,3.50
2022-09-09T02:06:51.135Z,4.03
2022-09-09T02:09:04.659Z,3.70
2022-09-09T02:11:20.560Z,3.90
2022-09-09T02:13:30.209Z,4.03
2022-09-09T02:15:42.645Z,4.15
2022-09-09T02:17:54.353Z,4.57
2022-09-09T02:20:22.559Z,4.25
2022-09-09T02:22:38.140Z,4.70
2022-09-09T02:24:46.070Z,3.60
2022-09-09T02:26:59.126Z,4.18
2022-09-09T02:29:09.489Z,6.60
2022-09-09T02:31:22.200Z,4.55
2022-09-09T02:33:38.956Z,5.32
2022-09-09T02:35:43.586Z,4.82
2022-09-09T02:37:47.249Z,5.30
2022-09-09T02:39:48.889Z,4.10
2022-09-09T02:41:50.519Z,5.22
2022-09-09T02:43:52.083Z,5.68
2022-09-09T02:46:05.941Z,6.43
2022-09-09T02:48:07.490Z,6.28
2022-09-09T02:50:12.936Z,8.00
2022-09-09T02:52:23.504Z,7.68
2022-09-09T02:54:31.987Z,6.97
2022-09-09T02:56:37.483Z,7.80
2022-09-09T02:58:40.467Z,7.70
2022-09-09T03:00:42.409Z,8.52
2022-09-09T03:02:44.083Z,8.65
2022-09-09T03:04:45.769Z,8.27
2022-09-09T03:06:47.505Z,9.52
2022-09-09T03:08:51.130Z,8.43
2022-09-09T03:10:55.386Z,8.27
2022-09-09T03:12:56.840Z,9.02
2022-09-09T03:14:58.285Z,9.68
2022-09-09T03:17:01.937Z,9.48
2022-09-09T03:19:03.850Z,8.95
2022-09-09T03:21:05.565Z,9.52
2022-09-09T03:23:07.107Z,10.25
2022-09-09T03:25:08.791Z,8.35
2022-09-09T03:27:10.261Z,9.35
2022-09-09T03:29:13.362Z,8.82
2022-09-09T03:31:15.620Z,8.47
2022-09-09T03:33:17.385Z,8.57
2022-09-09T03:35:19.077Z,8.15
2022-09-09T03:37:21.110Z,7.63
2022-09-09T03:39:22.879Z,7.90
2022-09-09T03:41:25.096Z,8.05
2022-09-09T03:43:27.523Z,6.47
2022-09-09T03:45:28.968Z,6.57
2022-09-09T03:47:31.038Z,5.30
2022-09-09T03:49:32.588Z,5.57
2022-09-09T03:51:37.878Z,4.47
2022-09-09T03:53:39.320Z,4.43
2022-09-09T03:55:44.643Z,4.45
2022-09-09T03:57:47.281Z,4.15
2022-09-09T03:59:48.829Z,3.97
2022-09-09T04:01:50.380Z,3.03
2022-09-09T04:03:53.104Z,3.33
2022-09-09T04:05:55.262Z,3.45
2022-09-09T04:07:56.731Z,3.28
2022-09-09T04:09:58.506Z,2.65
2022-09-09T04:11:59.996Z,3.53
2022-09-09T04:14:01.888Z,2.20
2022-09-09T04:16:04.992Z,3.50
2022-09-09T04:18:07.424Z,3.63
2022-09-09T04:20:12.418Z,2.92
2022-09-09T04:22:13.845Z,3.58
2022-09-09T04:24:17.326Z,2.65
2022-09-09T04:26:19.225Z,3.65
2022-09-09T04:28:22.127Z,3.35
2022-09-09T04:30:24.415Z,2.85
2022-09-09T04:32:28.572Z,3.33
2022-09-09T04:34:30.840Z,4.65
2022-09-09T04:36:33.267Z,4.38
2022-09-09T04:38:35.040Z,3.92
2022-09-09T04:40:36.591Z,3.78
2022-09-09T04:42:38.092Z,3.88
2022-09-09T04:44:40.482Z,3.58
2022-09-09T04:46:42.555Z,3.75
2022-09-09T04:48:44.275Z,4.40
2022-09-09T04:50:54.245Z,5.00
2022-09-09T04:52:55.693Z,4.55
2022-09-09T04:54:57.181Z,4.40
2022-09-09T04:56:58.698Z,4.10
2022-09-09T04:59:00.475Z,6.03
2022-09-09T05:01:09.349Z,5.13
2022-09-09T05:03:11.142Z,6.20
2022-09-09T05:05:13.200Z,5.70
2022-09-09T05:07:15.745Z,5.55
2022-09-09T05:09:24.709Z,5.35
2022-09-09T05:11:41.457Z,5.40
2022-09-09T05:13:48.827Z,5.50
2022-09-09T05:16:08.318Z,6.32
2022-09-09T05:18:35.365Z,6.07
2022-09-09T05:21:04.547Z,6.25
2022-09-09T05:23:25.261Z,6.00
2022-09-09T05:25:40.109Z,6.45
2022-09-09T05:27:50.831Z,6.50
2022-09-09T05:30:09.284Z,6.97
2022-09-09T05:32:37.471Z,6.70
2022-09-09T05:34:47.861Z,7.10
2022-09-09T05:36:56.263Z,7.00
2022-09-09T05:39:10.491Z,7.03
2022-09-09T05:41:32.518Z,7.38
2022-09-09T05:43:36.990Z,6.85
2022-09-09T05:45:38.550Z,7.22
2022-09-09T05:47:41.251Z,8.00
2022-09-09T05:49:42.912Z,7.72
2022-09-09T05:51:44.949Z,8.65
2022-09-09T05:53:46.804Z,8.68
2022-09-09T05:55:49.363Z,7.88
2022-09-09T05:57:52.494Z,9.15
2022-09-09T05:59:54.707Z,9.17
2022-09-09T06:01:56.699Z,9.07
2022-09-09T06:03:58.647Z,8.82
2022-09-09T06:06:00.836Z,10.75
2022-09-09T06:08:02.399Z,9.68
2022-09-09T06:10:04.327Z,9.85
2022-09-09T06:12:05.965Z,9.98
2022-09-09T06:14:08.447Z,10.52
2022-09-09T06:16:12.552Z,10.90
2022-09-09T06:18:14.412Z,11.20
2022-09-09T06:20:16.026Z,10.00
2022-09-09T06:22:17.846Z,9.82
2022-09-09T06:24:20.529Z,9.57
2022-09-09T06:26:23.525Z,8.35
2022-09-09T06:28:26.122Z,7.85
2022-09-09T06:30:27.828Z,7.72
2022-09-09T06:32:29.498Z,7.30
2022-09-09T06:34:31.271Z,5.15
2022-09-09T06:36:34.237Z,5.68
2022-09-09T06:38:35.920Z,4.88
2022-09-09T06:40:37.962Z,5.28
2022-09-09T06:42:39.926Z,5.05
2022-09-09T06:44:41.449Z,3.97
2022-09-09T06:46:44.478Z,4.28
2022-09-09T06:48:46.342Z,3.97
2022-09-09T06:50:48.483Z,3.28
2022-09-09T06:52:49.934Z,3.70
2022-09-09T06:54:51.557Z,2.80
2022-09-09T06:56:53.049Z,2.70
2022-09-09T06:58:55.910Z,2.22
2022-09-09T07:01:04.749Z,2.47
2022-09-09T07:03:07.266Z,2.50
2022-09-09T07:05:09.483Z,2.40
2022-09-09T07:07:13.258Z,1.88
2022-09-09T07:09:16.134Z,1.90
2022-09-09T07:11:17.969Z,1.40
2022-09-09T07:13:21.121Z,1.33
2022-09-09T07:15:23.910Z,1.60
2022-09-09T07:17:25.338Z,1.13
2022-09-09T07:19:26.858Z,0.80
2022-09-09T07:21:29.494Z,0.95
2022-09-09T07:23:36.062Z,2.10
2022-09-09T07:25:37.890Z,1.67
2022-09-09T07:27:39.382Z,0.82
2022-09-09T07:29:40.835Z,0.80
2022-09-09T07:31:42.474Z,1.23
2022-09-09T07:33:44.809Z,0.93
2022-09-09T07:35:46.352Z,0.80
2022-09-09T07:37:50.879Z,0.68
2022-09-09T07:39:52.638Z,0.70
2022-09-09T07:41:55.785Z,0.47
2022-09-09T07:45:59.651Z,0.70
2022-09-09T07:48:01.536Z,0.90
2022-09-09T07:50:03.037Z,0.60
2022-09-09T07:52:04.583Z,1.20
2022-09-09T07:54:07.378Z,1.00
2022-09-09T07:56:10.293Z,0.90
2022-09-09T07:58:12.003Z,0.98
2022-09-09T08:00:15.865Z,0.68
2022-09-09T08:02:17.471Z,0.95
2022-09-09T08:04:19.985Z,1.15
2022-09-09T08:06:21.465Z,0.95
2022-09-09T08:08:23.198Z,0.80
2022-09-09T08:10:24.679Z,1.10
2022-09-09T08:12:26.270Z,1.02
2022-09-09T08:14:27.745Z,1.00
2022-09-09T08:16:31.585Z,0.60
2022-09-09T08:18:37.389Z,0.95
2022-09-09T08:20:55.560Z,1.00
2022-09-09T08:23:09.475Z,1.60
2022-09-09T08:25:23.821Z,0.70
2022-09-09T08:27:30.687Z,0.90
2022-09-09T08:29:40.615Z,1.10
2022-09-09T08:32:04.846Z,0.80
2022-09-09T08:34:12.055Z,1.02
2022-09-09T08:36:26.923Z,0.50
2022-09-09T08:38:34.005Z,0.95
2022-09-09T08:40:46.322Z,0.80
2022-09-09T08:43:02.790Z,0.90
2022-09-09T08:45:46.061Z,0.90
2022-09-09T08:47:50.367Z,1.30
2022-09-09T08:49:54.865Z,1.00
2022-09-09T08:51:57.263Z,0.60
2022-09-09T08:54:00.034Z,0.70
2022-09-09T08:56:04.566Z,0.50
2022-09-09T08:58:22.910Z,0.70
2022-09-09T09:00:28.983Z,0.73
2022-09-09T09:02:47.564Z,0.70
2022-09-09T09:04:57.095Z,0.70
2022-09-09T09:07:07.817Z,0.63
2022-09-09T09:09:16.298Z,0.60
2022-09-09T09:11:18.098Z,0.80
2022-09-09T09:13:25.129Z,0.90
2022-09-09T09:15:30.756Z,1.02
2022-09-09T09:17:34.926Z,0.68
2022-09-09T09:19:39.210Z,1.38
2022-09-09T09:21:43.226Z,0.85
2022-09-09T09:23:48.676Z,0.60
2022-09-09T09:25:52.681Z,2.03
2022-09-09T09:28:06.748Z,0.73
2022-09-09T09:32:29.364Z,0.90
2022-09-09T09:34:31.043Z,0.85
2022-09-09T09:36:40.102Z,1.17
2022-09-09T09:41:13.760Z,1.00
2022-09-09T09:43:21.181Z,0.88
2022-09-09T09:45:23.414Z,0.70
2022-09-09T09:47:25.200Z,0.98
2022-09-09T09:49:26.714Z,1.00
2022-09-09T09:51:31.357Z,0.85
2022-09-09T09:53:34.548Z,0.60
2022-09-09T09:55:36.518Z,0.93
2022-09-09T09:57:39.292Z,0.73
2022-09-09T09:59:41.212Z,0.80
2022-09-09T10:01:42.975Z,0.85
2022-09-09T10:03:51.324Z,1.00
2022-09-09T10:05:52.963Z,0.60
2022-09-09T10:08:11.716Z,0.77
2022-09-09T10:10:26.878Z,0.47
2022-09-09T10:12:47.748Z,0.95
2022-09-09T10:15:09.333Z,0.68
2022-09-09T10:17:18.349Z,0.63
2022-09-09T10:19:31.150Z,0.93
2022-09-09T10:21:51.280Z,0.82
2022-09-09T10:24:23.468Z,0.70
2022-09-09T10:26:34.379Z,0.95
2022-09-09T10:28:51.258Z,0.60
2022-09-09T10:30:55.606Z,0.90
2022-09-09T10:33:03.455Z,0.60
2022-09-09T10:35:14.667Z,1.30
2022-09-09T10:37:36.417Z,0.95
2022-09-09T10:39:43.129Z,0.70
2022-09-09T10:42:01.201Z,0.57
2022-09-09T10:44:21.388Z,0.70
2022-09-09T10:46:29.998Z,0.60
2022-09-09T10:48:38.422Z,0.50
2022-09-09T10:51:01.091Z,0.40
2022-09-09T10:53:18.919Z,0.60
2022-09-09T10:55:29.990Z,0.40
2022-09-09T10:57:37.835Z,0.60
2022-09-09T10:59:41.737Z,0.82
2022-09-09T11:01:46.073Z,0.75
2022-09-09T11:03:51.290Z,0.85
2022-09-09T11:06:05.264Z,0.70
2022-09-09T11:08:18.883Z,0.65
2022-09-09T11:10:26.493Z,0.80
2022-09-09T11:12:28.441Z,0.68
2022-09-09T11:14:35.453Z,0.50
2022-09-09T11:16:44.256Z,0.70
2022-09-09T11:18:47.446Z,0.60
2022-09-09T11:20:58.030Z,0.40
2022-09-09T11:23:16.487Z,0.60
2022-09-09T11:25:41.909Z,0.88
2022-09-09T11:27:51.878Z,0.65
2022-09-09T11:29:55.717Z,0.50
2022-09-09T11:32:26.184Z,1.17
2022-09-09T11:34:50.841Z,0.60
2022-09-09T11:37:06.874Z,1.25
2022-09-09T11:39:29.365Z,0.80
2022-09-09T11:41:37.083Z,0.88
2022-09-09T11:43:44.248Z,0.55
2022-09-09T11:45:58.670Z,0.70
2022-09-09T11:48:06.865Z,0.63
2022-09-09T11:50:33.654Z,0.50
2022-09-09T11:52:39.969Z,0.70
2022-09-09T11:54:49.314Z,0.30
2022-09-09T11:56:51.160Z,0.47
2022-09-09T11:58:57.474Z,0.50
2022-09-09T12:00:59.017Z,0.45
2022-09-09T12:03:00.509Z,0.60
2022-09-09T12:05:13.493Z,0.60
2022-09-09T12:07:25.538Z,0.32
2022-09-09T12:09:51.345Z,0.40
2022-09-09T12:11:53.446Z,0.40
2022-09-09T12:13:56.305Z,0.43
2022-09-09T12:15:59.226Z,0.43
2022-09-09T12:18:03.795Z,0.40
2022-09-09T12:20:26.013Z,0.40
2022-09-09T12:22:34.635Z,0.43
2022-09-09T12:24:51.772Z,0.32
2022-09-09T12:27:12.450Z,0.43
2022-09-09T12:29:16.605Z,0.28
2022-09-09T12:31:19.132Z,0.55
2022-09-09T12:33:21.014Z,0.30
2022-09-09T12:35:26.979Z,0.40
2022-09-09T12:37:41.092Z,0.40
2022-09-09T12:40:08.858Z,0.30
2022-09-09T12:42:20.921Z,0.38
2022-09-09T12:44:22.653Z,0.30
2022-09-09T12:46:34.085Z,0.30
2022-09-09T12:48:41.742Z,0.38
2022-09-09T12:50:47.439Z,0.40
2022-09-09T12:52:50.231Z,0.45
2022-09-09T12:54:53.083Z,0.30
2022-09-09T12:56:54.998Z,0.40
2022-09-09T12:58:57.283Z,0.30
2022-09-09T13:00:59.423Z,0.40
2022-09-09T13:03:02.262Z,0.52
2022-09-09T13:05:17.551Z,0.45
2022-09-09T13:07:20.794Z,0.32
2022-09-09T13:09:22.381Z,0.20
2022-09-09T13:11:34.741Z,0.52
2022-09-09T13:13:37.381Z,0.40
2022-09-09T13:15:38.899Z,0.30
2022-09-09T13:17:40.964Z,0.30
2022-09-09T13:19:46.554Z,0.57
2022-09-09T13:21:48.422Z,0.50
2022-09-09T13:23:51.570Z,0.38
2022-09-09T13:26:01.418Z,0.43
2022-09-09T13:28:04.238Z,0.52
2022-09-09T13:30:23.824Z,0.50
2022-09-09T13:32:27.982Z,0.68
2022-09-09T13:34:31.225Z,0.50
2022-09-09T13:36:34.102Z,0.70
2022-09-09T13:39:00.480Z,0.38
2022-09-09T13:41:04.685Z,0.40
2022-09-09T13:43:06.649Z,0.50
2022-09-09T13:45:17.229Z,0.80
2022-09-09T13:47:23.731Z,0.70
2022-09-09T13:49:29.118Z,0.93
2022-09-09T13:51:33.408Z,0.60
2022-09-09T13:53:35.290Z,1.10
2022-09-09T13:55:37.482Z,0.63
2022-09-09T13:57:39.297Z,0.80
2022-09-09T14:00:03.734Z,0.70
2022-09-09T14:02:03.346Z,0.45
2022-09-09T14:04:06.967Z,0.50
2022-09-09T14:06:08.475Z,0.50
2022-09-09T14:08:14.942Z,0.50
2022-09-09T14:10:17.090Z,0.52
2022-09-09T14:12:19.429Z,0.52
2022-09-09T14:14:21.429Z,1.08
2022-09-09T14:16:23.112Z,0.90
2022-09-09T14:18:26.540Z,0.90
2022-09-09T14:20:28.127Z,1.05
2022-09-09T14:22:29.626Z,1.27
2022-09-09T14:24:31.118Z,0.82
2022-09-09T14:26:33.110Z,1.17
2022-09-09T14:31:06.198Z,0.82
2022-09-09T14:33:15.237Z,1.45
2022-09-09T14:35:23.532Z,1.20
2022-09-09T14:37:33.138Z,1.13
2022-09-09T14:39:37.657Z,0.98
2022-09-09T14:41:44.562Z,1.25
2022-09-09T14:43:54.591Z,0.88
2022-09-09T14:46:02.130Z,1.00
2022-09-09T14:48:18.477Z,0.65
2022-09-09T14:50:30.184Z,1.15
2022-09-09T14:52:39.510Z,1.00
2022-09-09T14:54:54.805Z,0.77
2022-09-09T14:57:08.630Z,0.60
2022-09-09T15:01:16.385Z,1.05
2022-09-09T15:03:18.245Z,0.93
2022-09-09T15:05:20.375Z,0.60
2022-09-09T15:07:23.511Z,1.50
2022-09-09T15:09:25.181Z,1.23
2022-09-09T15:11:28.992Z,0.90
2022-09-09T15:15:32.038Z,0.60
2022-09-09T15:17:33.530Z,0.90
2022-09-09T15:19:35.213Z,0.82
2022-09-09T15:21:37.378Z,0.60
2022-09-09T15:23:39.004Z,0.95
2022-09-09T15:25:51.738Z,1.55
2022-09-09T15:27:53.252Z,0.90
2022-09-09T15:29:54.990Z,0.88
2022-09-09T15:31:56.830Z,1.50
2022-09-09T15:34:01.957Z,0.88
2022-09-09T15:36:13.196Z,1.00
2022-09-09T15:38:17.063Z,0.90
2022-09-09T15:42:20.038Z,1.38
2022-09-09T15:44:21.711Z,0.75
2022-09-09T15:46:25.575Z,1.15
2022-09-09T15:50:30.590Z,0.90
2022-09-09T15:52:32.258Z,0.82
2022-09-09T15:54:35.403Z,1.10
2022-09-09T15:56:37.253Z,1.00
2022-09-09T15:58:38.831Z,1.02
2022-09-09T16:00:40.439Z,1.25
2022-09-09T16:02:41.943Z,1.00
2022-09-09T16:04:43.834Z,0.88
2022-09-09T16:06:45.510Z,0.80
2022-09-09T16:08:53.590Z,0.65
2022-09-09T16:10:55.286Z,0.90
2022-09-09T16:12:57.222Z,0.90
2022-09-09T16:15:00.925Z,0.70
2022-09-09T16:17:03.964Z,0.80
2022-09-09T16:19:10.693Z,0.55
2022-09-09T16:21:17.227Z,0.38
2022-09-09T16:23:20.769Z,0.40
2022-09-09T16:25:22.208Z,0.50
2022-09-09T16:27:24.333Z,0.55
2022-09-09T16:29:28.558Z,0.55
2022-09-09T16:31:33.324Z,0.43
2022-09-09T16:33:35.573Z,0.65
2022-09-09T16:35:37.697Z,0.65
2022-09-09T16:37:39.243Z,0.60
2022-09-09T16:39:40.840Z,0.60
2022-09-09T16:41:43.209Z,0.75
2022-09-09T16:43:44.811Z,0.85
2022-09-09T16:45:46.462Z,0.90
2022-09-09T16:47:49.044Z,0.93
2022-09-09T16:49:50.567Z,0.80
2022-09-09T16:51:55.031Z,0.90
2022-09-09T16:53:58.683Z,0.95
2022-09-09T16:56:26.856Z,1.08
2022-09-09T16:58:28.479Z,0.70
2022-09-09T17:00:30.270Z,1.00
2022-09-09T17:02:31.782Z,0.80
2022-09-09T17:04:34.386Z,0.57
2022-09-09T17:06:37.859Z,1.60
2022-09-09T17:08:40.257Z,0.90
2022-09-09T17:10:43.186Z,1.08
2022-09-09T17:12:44.912Z,1.43
2022-09-09T17:14:46.670Z,0.70
2022-09-09T17:16:48.298Z,0.98
2022-09-09T17:18:50.749Z,0.80
2022-09-09T17:20:52.512Z,0.68
2022-09-09T17:22:54.080Z,0.88
2022-09-09T17:24:55.874Z,1.48
2022-09-09T17:26:58.511Z,0.98
2022-09-09T17:29:01.438Z,0.80
2022-09-09T17:31:04.652Z,0.68
2022-09-09T17:33:07.935Z,0.90
2022-09-09T17:35:09.680Z,1.30
2022-09-09T17:37:16.885Z,0.93
2022-09-09T17:39:26.150Z,1.30
2022-09-09T17:41:39.857Z,1.40
2022-09-09T17:44:11.165Z,1.30
2022-09-09T17:46:23.699Z,1.60
2022-09-09T17:48:37.979Z,1.25
2022-09-09T17:51:03.652Z,1.33
2022-09-09T17:53:14.882Z,1.67
2022-09-09T17:55:25.198Z,1.85
2022-09-09T17:57:37.068Z,1.08
2022-09-09T17:59:40.774Z,1.00
2022-09-09T18:01:51.261Z,1.57
2022-09-09T18:04:04.888Z,0.70
2022-09-09T18:06:09.027Z,0.98
2022-09-09T18:08:10.542Z,0.90
2022-09-09T18:10:12.885Z,1.05
2022-09-09T18:12:14.635Z,1.08
2022-09-09T18:14:18.285Z,1.60
2022-09-09T18:16:19.948Z,0.82
2022-09-09T18:18:22.125Z,1.00
2022-09-09T18:20:24.024Z,1.05
2022-09-09T18:22:25.777Z,0.88
2022-09-09T18:24:27.494Z,1.08
2022-09-09T18:26:29.715Z,0.77
2022-09-09T18:28:31.177Z,1.02
2022-09-09T18:30:32.770Z,1.25
2022-09-09T18:32:34.300Z,0.63
2022-09-09T18:34:36.485Z,1.23
2022-09-09T18:36:39.567Z,0.98
2022-09-09T18:38:42.038Z,1.25
2022-09-09T18:40:44.338Z,0.98
2022-09-09T18:42:47.100Z,1.00
2022-09-09T18:44:48.843Z,0.77
2022-09-09T18:46:52.094Z,0.90
2022-09-09T18:48:53.744Z,1.48
2022-09-09T18:50:55.230Z,1.50
2022-09-09T18:53:23.214Z,0.93
2022-09-09T18:57:52.174Z,1.33
2022-09-09T18:59:55.401Z,1.42
2022-09-09T19:01:57.292Z,0.70
2022-09-09T19:03:58.874Z,0.95
2022-09-09T19:06:04.578Z,1.23
2022-09-09T19:08:06.049Z,0.95
2022-09-09T19:10:08.190Z,0.93
2022-09-09T19:12:09.911Z,0.85
2022-09-09T19:14:12.555Z,0.77
2022-09-09T19:16:15.225Z,0.77
2022-09-09T19:18:16.716Z,1.08
2022-09-09T19:20:21.079Z,1.20
2022-09-09T19:22:23.290Z,1.30
2022-09-09T19:24:27.366Z,1.17
2022-09-09T19:26:32.059Z,1.85
2022-09-09T19:28:34.612Z,1.27
2022-09-09T19:30:36.436Z,1.30
2022-09-09T19:32:52.746Z,0.90
2022-09-09T19:34:55.116Z,1.33
2022-09-09T19:36:56.573Z,1.45
2022-09-09T19:38:58.474Z,1.27
2022-09-09T19:41:04.526Z,1.20
2022-09-09T19:43:07.281Z,1.75
2022-09-09T19:45:10.514Z,1.58
2022-09-09T19:47:13.017Z,1.23
2022-09-09T19:49:15.626Z,1.00
2022-09-09T19:51:18.876Z,1.25
2022-09-09T19:53:21.187Z,1.17
2022-09-09T19:55:28.671Z,1.45
2022-09-09T19:57:30.864Z,1.23
2022-09-09T19:59:32.880Z,1.33
2022-09-09T20:01:40.044Z,0.82
2022-09-09T20:03:42.484Z,1.45
2022-09-09T20:05:44.073Z,1.30
2022-09-09T20:07:45.893Z,1.58
2022-09-09T20:09:47.398Z,1.00
2022-09-09T20:11:49.317Z,1.35
2022-09-09T20:13:51.338Z,1.60
2022-09-09T20:15:57.081Z,1.30
2022-09-09T20:17:58.892Z,1.10
2022-09-09T20:20:00.549Z,1.40
2022-09-09T20:22:02.083Z,1.52
2022-09-09T20:24:05.910Z,1.20
2022-09-09T20:26:09.183Z,1.00
2022-09-09T20:28:10.806Z,1.75
2022-09-09T20:30:12.459Z,1.05
2022-09-09T20:32:13.920Z,1.70
2022-09-09T20:34:16.772Z,1.15
2022-09-09T20:36:20.208Z,1.05
2022-09-09T20:38:22.663Z,1.58
2022-09-09T20:40:31.540Z,1.10
2022-09-09T20:42:39.090Z,1.00
2022-09-09T20:44:51.388Z,1.02
2022-09-09T20:47:13.902Z,0.82
2022-09-09T20:49:36.319Z,1.10
2022-09-09T20:52:03.274Z,1.27
2022-09-09T20:54:15.528Z,1.42
2022-09-09T20:56:30.988Z,1.13
2022-09-09T20:58:45.309Z,1.17
2022-09-09T21:00:59.067Z,2.30
2022-09-09T21:03:08.021Z,1.42
2022-09-09T21:05:23.307Z,1.30
2022-09-09T21:07:34.117Z,1.70
2022-09-09T21:09:47.686Z,1.20
2022-09-09T21:11:53.593Z,1.50
2022-09-09T21:13:56.465Z,1.38
2022-09-09T21:15:58.706Z,1.60
2022-09-09T21:18:00.539Z,1.40
2022-09-09T21:20:02.322Z,1.40
2022-09-09T21:22:04.069Z,1.27
2022-09-09T21:24:05.977Z,1.50
2022-09-09T21:26:08.161Z,1.60
2022-09-09T21:28:09.958Z,1.58
2022-09-09T21:30:11.934Z,2.30
2022-09-09T21:32:13.455Z,2.15
2022-09-09T21:34:15.586Z,1.73
2022-09-09T21:36:17.166Z,1.73
2022-09-09T21:38:21.003Z,2.30
2022-09-09T21:42:24.108Z,1.88
2022-09-09T21:44:26.741Z,1.80
2022-09-09T21:46:29.378Z,2.15
2022-09-09T21:48:31.571Z,1.58
2022-09-09T21:50:43.738Z,1.80
2022-09-09T21:52:45.324Z,1.55
2022-09-09T21:54:47.002Z,1.83
2022-09-09T21:56:52.443Z,1.50
2022-09-09T21:58:57.893Z,1.70
2022-09-09T22:00:59.731Z,1.40
2022-09-09T22:03:02.982Z,1.63
2022-09-09T22:05:05.178Z,1.30
2022-09-09T22:07:07.213Z,1.88
2022-09-09T22:09:08.661Z,1.65
2022-09-09T22:11:12.116Z,1.65
2022-09-09T22:13:15.086Z,2.30
2022-09-09T22:15:16.721Z,1.88
2022-09-09T22:17:18.394Z,2.35
2022-09-09T22:19:19.958Z,2.40
2022-09-09T22:21:22.195Z,2.10
2022-09-09T22:23:24.384Z,2.08
2022-09-09T22:25:26.102Z,2.15
2022-09-09T22:27:27.558Z,1.98
2022-09-09T22:29:29.201Z,2.40
2022-09-09T22:31:31.182Z,1.85
2022-09-09T22:33:32.786Z,1.73
2022-09-09T22:35:40.834Z,2.72
2022-09-09T22:37:42.669Z,2.58
2022-09-09T22:39:44.457Z,1.95
2022-09-09T22:41:47.563Z,1.50
2022-09-09T22:43:49.098Z,1.50
2022-09-09T22:45:51.202Z,1.65
2022-09-09T22:47:52.674Z,2.15
2022-09-09T22:49:54.200Z,4.10
2022-09-09T22:51:55.718Z,1.90
2022-09-09T22:54:00.175Z,1.60
2022-09-09T22:56:03.550Z,2.20
2022-09-09T22:58:05.377Z,1.98
2022-09-09T23:00:10.635Z,1.60
2022-09-09T23:02:14.541Z,1.75
2022-09-09T23:04:16.077Z,1.70
2022-09-09T23:06:22.565Z,1.73
2022-09-09T23:08:34.970Z,1.80
2022-09-09T23:10:40.511Z,2.33
2022-09-09T23:12:42.446Z,2.13
2022-09-09T23:14:43.964Z,2.03
2022-09-09T23:16:46.639Z,2.17
2022-09-09T23:18:48.485Z,2.38
2022-09-09T23:21:00.657Z,2.33
2022-09-09T23:23:02.251Z,2.20
2022-09-09T23:25:04.334Z,1.73
2022-09-09T23:27:06.002Z,2.03
2022-09-09T23:29:08.222Z,2.60
2022-09-09T23:31:10.922Z,2.35
2022-09-09T23:33:12.535Z,2.00
2022-09-09T23:35:14.159Z,2.20
2022-09-09T23:37:16.379Z,2.58
2022-09-09T23:39:17.875Z,2.42
2022-09-09T23:41:21.153Z,2.50
2022-09-09T23:43:25.376Z,2.10
2022-09-09T23:47:29.231Z,2.05
2022-09-09T23:49:35.062Z,2.38
2022-09-09T23:51:46.839Z,3.22
2022-09-09T23:53:57.479Z,1.90
2022-09-09T23:56:08.377Z,2.35
2022-09-09T23:58:22.237Z,2.28
